sensor_id;sensor_type;location;lat;lon;timestamp;temperature;humidity
484;DHT22;228;48.922;12.198;2023-04-29T04:00:31;14.40;86.90
484;DHT22;228;48.922;12.198;2023-04-29T04:02:59;14.70;84.90
484;DHT22;228;48.922;12.198;2023-04-29T04:05:25;14.90;83.80
484;DHT22;228;48.922;12.198;2023-04-29T04:07:57;14.70;83.80
484;DHT22;228;48.922;12.198;2023-04-29T04:10:44;14.60;84.90
484;DHT22;228;48.922;12.198;2023-04-29T04:13:30;14.30;86.10
484;DHT22;228;48.922;12.198;2023-04-29T04:15:57;14.00;88.10
484;DHT22;228;48.922;12.198;2023-04-29T04:18:23;13.60;89.60
484;DHT22;228;48.922;12.198;2023-04-29T04:20:49;13.70;90.20
484;DHT22;228;48.922;12.198;2023-04-29T04:23:15;14.00;89.20
484;DHT22;228;48.922;12.198;2023-04-29T04:25:47;14.10;88.60
484;DHT22;228;48.922;12.198;2023-04-29T04:28:32;14.40;88.60
484;DHT22;228;48.922;12.198;2023-04-29T04:31:04;14.60;86.50
484;DHT22;228;48.922;12.198;2023-04-29T04:33:30;14.50;87.50
484;DHT22;228;48.922;12.198;2023-04-29T04:35:57;14.40;87.50
484;DHT22;228;48.922;12.198;2023-04-29T04:38:24;14.60;87.40
484;DHT22;228;48.922;12.198;2023-04-29T04:40:53;14.60;86.40
484;DHT22;228;48.922;12.198;2023-04-29T04:43:27;14.20;87.30
484;DHT22;228;48.922;12.198;2023-04-29T04:45:53;14.40;88.00
484;DHT22;228;48.922;12.198;2023-04-29T04:48:19;14.80;86.70
484;DHT22;228;48.922;12.198;2023-04-29T04:50:48;15.10;85.90
484;DHT22;228;48.922;12.198;2023-04-29T04:53:15;15.40;83.70
484;DHT22;228;48.922;12.198;2023-04-29T04:55:46;15.30;83.80
484;DHT22;228;48.922;12.198;2023-04-29T04:58:14;15.30;84.70
484;DHT22;228;48.922;12.198;2023-04-29T05:00:44;15.30;83.80
484;DHT22;228;48.922;12.198;2023-04-29T05:03:11;15.20;84.30
484;DHT22;228;48.922;12.198;2023-04-29T05:05:37;14.90;85.50
484;DHT22;228;48.922;12.198;2023-04-29T05:08:03;15.00;87.20
484;DHT22;228;48.922;12.198;2023-04-29T05:10:36;14.90;85.50
484;DHT22;228;48.922;12.198;2023-04-29T05:13:04;14.90;86.80
484;DHT22;228;48.922;12.198;2023-04-29T05:15:30;15.00;86.10
484;DHT22;228;48.922;12.198;2023-04-29T05:17:59;15.20;85.90
484;DHT22;228;48.922;12.198;2023-04-29T05:20:25;15.00;85.70
484;DHT22;228;48.922;12.198;2023-04-29T05:22:53;15.20;85.30
484;DHT22;228;48.922;12.198;2023-04-29T05:25:19;15.20;86.00
484;DHT22;228;48.922;12.198;2023-04-29T05:27:46;15.10;85.30
484;DHT22;228;48.922;12.198;2023-04-29T05:30:15;15.00;86.30
484;DHT22;228;48.922;12.198;2023-04-29T05:32:43;15.10;85.80
484;DHT22;228;48.922;12.198;2023-04-29T05:35:14;15.20;85.70
484;DHT22;228;48.922;12.198;2023-04-29T05:37:40;15.60;84.50
484;DHT22;228;48.922;12.198;2023-04-29T05:40:30;15.40;83.80
484;DHT22;228;48.922;12.198;2023-04-29T05:43:12;15.30;84.40
484;DHT22;228;48.922;12.198;2023-04-29T05:45:38;15.30;83.70
484;DHT22;228;48.922;12.198;2023-04-29T05:48:04;15.10;85.70
484;DHT22;228;48.922;12.198;2023-04-29T05:50:30;15.20;84.90
484;DHT22;228;48.922;12.198;2023-04-29T05:52:57;15.40;84.80
484;DHT22;228;48.922;12.198;2023-04-29T05:55:24;15.80;83.50
484;DHT22;228;48.922;12.198;2023-04-29T05:57:50;15.40;82.80
484;DHT22;228;48.922;12.198;2023-04-29T06:00:17;15.70;83.40
484;DHT22;228;48.922;12.198;2023-04-29T06:02:43;16.10;81.50
484;DHT22;228;48.922;12.198;2023-04-29T06:05:12;16.20;81.10
484;DHT22;228;48.922;12.198;2023-04-29T06:07:51;16.40;79.90
484;DHT22;228;48.922;12.198;2023-04-29T06:10:31;16.40;79.60
484;DHT22;228;48.922;12.198;2023-04-29T06:12:58;16.30;78.70
484;DHT22;228;48.922;12.198;2023-04-29T06:15:24;16.40;78.60
484;DHT22;228;48.922;12.198;2023-04-29T06:17:51;16.00;79.70
484;DHT22;228;48.922;12.198;2023-04-29T06:20:17;16.30;79.90
484;DHT22;228;48.922;12.198;2023-04-29T06:22:43;16.60;78.70
484;DHT22;228;48.922;12.198;2023-04-29T06:25:09;17.00;77.00
484;DHT22;228;48.922;12.198;2023-04-29T06:27:45;17.30;75.20
484;DHT22;228;48.922;12.198;2023-04-29T06:30:13;17.40;75.10
484;DHT22;228;48.922;12.198;2023-04-29T06:32:43;17.70;74.80
484;DHT22;228;48.922;12.198;2023-04-29T06:35:13;17.60;73.00
484;DHT22;228;48.922;12.198;2023-04-29T06:37:58;17.50;73.70
484;DHT22;228;48.922;12.198;2023-04-29T06:40:39;17.30;74.00
484;DHT22;228;48.922;12.198;2023-04-29T06:43:17;17.00;75.20
484;DHT22;228;48.922;12.198;2023-04-29T06:45:54;17.10;75.20
484;DHT22;228;48.922;12.198;2023-04-29T06:48:33;17.60;75.20
484;DHT22;228;48.922;12.198;2023-04-29T06:50:59;18.00;72.50
484;DHT22;228;48.922;12.198;2023-04-29T06:53:25;18.20;71.60
484;DHT22;228;48.922;12.198;2023-04-29T06:55:52;17.80;71.50
484;DHT22;228;48.922;12.198;2023-04-29T06:58:19;18.10;72.10
484;DHT22;228;48.922;12.198;2023-04-29T07:00:47;18.50;69.60
484;DHT22;228;48.922;12.198;2023-04-29T07:03:15;18.70;69.10
484;DHT22;228;48.922;12.198;2023-04-29T07:05:43;18.50;70.70
484;DHT22;228;48.922;12.198;2023-04-29T07:08:11;18.90;69.80
484;DHT22;228;48.922;12.198;2023-04-29T07:10:38;19.10;68.40
484;DHT22;228;48.922;12.198;2023-04-29T07:13:04;19.00;69.20
484;DHT22;228;48.922;12.198;2023-04-29T07:15:33;18.80;66.00
484;DHT22;228;48.922;12.198;2023-04-29T07:18:01;18.40;67.80
484;DHT22;228;48.922;12.198;2023-04-29T07:20:28;18.20;69.70
484;DHT22;228;48.922;12.198;2023-04-29T07:22:54;18.20;70.40
484;DHT22;228;48.922;12.198;2023-04-29T07:25:21;18.00;69.50
484;DHT22;228;48.922;12.198;2023-04-29T07:27:48;17.60;69.30
484;DHT22;228;48.922;12.198;2023-04-29T07:30:14;17.50;71.60
484;DHT22;228;48.922;12.198;2023-04-29T07:32:41;17.60;72.30
484;DHT22;228;48.922;12.198;2023-04-29T07:35:08;17.80;72.30
484;DHT22;228;48.922;12.198;2023-04-29T07:37:36;18.00;70.70
484;DHT22;228;48.922;12.198;2023-04-29T07:40:03;17.70;72.30
484;DHT22;228;48.922;12.198;2023-04-29T07:42:30;17.80;71.80
484;DHT22;228;48.922;12.198;2023-04-29T07:45:01;18.00;71.30
484;DHT22;228;48.922;12.198;2023-04-29T07:47:29;17.90;71.40
484;DHT22;228;48.922;12.198;2023-04-29T07:49:56;17.70;71.90
484;DHT22;228;48.922;12.198;2023-04-29T07:52:23;17.50;72.50
484;DHT22;228;48.922;12.198;2023-04-29T07:54:50;17.10;72.60
484;DHT22;228;48.922;12.198;2023-04-29T07:57:18;17.30;73.00
484;DHT22;228;48.922;12.198;2023-04-29T07:59:44;17.60;74.10
484;DHT22;228;48.922;12.198;2023-04-29T08:02:10;17.90;72.80
484;DHT22;228;48.922;12.198;2023-04-29T08:04:39;18.40;69.40
484;DHT22;228;48.922;12.198;2023-04-29T08:07:09;18.90;67.00
484;DHT22;228;48.922;12.198;2023-04-29T08:09:42;19.60;66.80
484;DHT22;228;48.922;12.198;2023-04-29T08:12:09;19.70;65.00
484;DHT22;228;48.922;12.198;2023-04-29T08:14:39;20.30;64.50
484;DHT22;228;48.922;12.198;2023-04-29T08:17:07;20.40;63.40
484;DHT22;228;48.922;12.198;2023-04-29T08:19:38;20.00;61.80
484;DHT22;228;48.922;12.198;2023-04-29T08:22:04;20.30;62.40
484;DHT22;228;48.922;12.198;2023-04-29T08:24:30;20.50;60.80
484;DHT22;228;48.922;12.198;2023-04-29T08:26:58;20.20;60.20
484;DHT22;228;48.922;12.198;2023-04-29T08:29:30;20.20;62.00
484;DHT22;228;48.922;12.198;2023-04-29T08:32:01;20.60;60.90
484;DHT22;228;48.922;12.198;2023-04-29T08:34:36;20.80;59.30
484;DHT22;228;48.922;12.198;2023-04-29T08:37:04;21.20;59.50
484;DHT22;228;48.922;12.198;2023-04-29T08:39:36;21.30;58.10
484;DHT22;228;48.922;12.198;2023-04-29T08:42:09;21.70;57.90
484;DHT22;228;48.922;12.198;2023-04-29T08:44:57;21.90;56.10
484;DHT22;228;48.922;12.198;2023-04-29T08:47:39;21.30;57.50
484;DHT22;228;48.922;12.198;2023-04-29T08:50:09;21.10;57.10
484;DHT22;228;48.922;12.198;2023-04-29T08:52:42;20.80;57.30
484;DHT22;228;48.922;12.198;2023-04-29T08:55:11;21.30;56.80
484;DHT22;228;48.922;12.198;2023-04-29T08:57:45;20.80;57.60
484;DHT22;228;48.922;12.198;2023-04-29T09:00:16;21.00;58.80
484;DHT22;228;48.922;12.198;2023-04-29T09:02:50;21.10;57.70
484;DHT22;228;48.922;12.198;2023-04-29T09:05:18;21.20;56.90
484;DHT22;228;48.922;12.198;2023-04-29T09:07:47;21.00;57.60
484;DHT22;228;48.922;12.198;2023-04-29T09:10:18;21.30;56.80
484;DHT22;228;48.922;12.198;2023-04-29T09:12:45;21.00;57.20
484;DHT22;228;48.922;12.198;2023-04-29T09:15:13;20.80;56.80
484;DHT22;228;48.922;12.198;2023-04-29T09:17:46;20.90;57.40
484;DHT22;228;48.922;12.198;2023-04-29T09:25:14;20.50;59.50
484;DHT22;228;48.922;12.198;2023-04-29T09:27:46;20.50;59.70
484;DHT22;228;48.922;12.198;2023-04-29T09:30:20;20.20;60.00
484;DHT22;228;48.922;12.198;2023-04-29T09:33:07;20.20;60.90
484;DHT22;228;48.922;12.198;2023-04-29T09:35:46;20.50;59.00
484;DHT22;228;48.922;12.198;2023-04-29T09:38:16;20.80;59.50
484;DHT22;228;48.922;12.198;2023-04-29T09:40:42;21.20;57.70
484;DHT22;228;48.922;12.198;2023-04-29T09:43:14;21.50;58.50
484;DHT22;228;48.922;12.198;2023-04-29T09:45:48;21.80;56.90
484;DHT22;228;48.922;12.198;2023-04-29T09:48:38;21.90;56.40
484;DHT22;228;48.922;12.198;2023-04-29T09:51:08;21.90;54.30
484;DHT22;228;48.922;12.198;2023-04-29T09:53:36;22.00;55.20
484;DHT22;228;48.922;12.198;2023-04-29T09:56:05;22.30;54.90
484;DHT22;228;48.922;12.198;2023-04-29T09:58:42;22.30;53.90
484;DHT22;228;48.922;12.198;2023-04-29T10:01:11;22.20;54.10
484;DHT22;228;48.922;12.198;2023-04-29T10:04:09;22.30;54.20
484;DHT22;228;48.922;12.198;2023-04-29T10:06:41;22.10;54.80
484;DHT22;228;48.922;12.198;2023-04-29T10:09:14;21.90;54.80
484;DHT22;228;48.922;12.198;2023-04-29T10:11:43;21.60;55.70
484;DHT22;228;48.922;12.198;2023-04-29T10:14:14;21.40;56.60
484;DHT22;228;48.922;12.198;2023-04-29T10:20:03;21.20;57.60
484;DHT22;228;48.922;12.198;2023-04-29T10:22:46;20.70;58.50
484;DHT22;228;48.922;12.198;2023-04-29T10:25:17;20.70;58.90
484;DHT22;228;48.922;12.198;2023-04-29T10:27:45;20.60;59.50
484;DHT22;228;48.922;12.198;2023-04-29T10:30:17;20.90;57.10
484;DHT22;228;48.922;12.198;2023-04-29T10:32:46;21.00;58.30
484;DHT22;228;48.922;12.198;2023-04-29T10:35:14;21.50;56.40
484;DHT22;228;48.922;12.198;2023-04-29T10:37:45;22.00;56.20
484;DHT22;228;48.922;12.198;2023-04-29T10:40:21;22.50;55.40
484;DHT22;228;48.922;12.198;2023-04-29T10:42:51;23.10;53.70
484;DHT22;228;48.922;12.198;2023-04-29T10:50:28;23.60;50.80
484;DHT22;228;48.922;12.198;2023-04-29T10:52:54;23.00;51.80
484;DHT22;228;48.922;12.198;2023-04-29T10:55:22;21.40;55.50
484;DHT22;228;48.922;12.198;2023-04-29T10:57:52;20.90;57.90
484;DHT22;228;48.922;12.198;2023-04-29T11:00:26;20.50;55.10
484;DHT22;228;48.922;12.198;2023-04-29T11:02:53;20.00;57.10
484;DHT22;228;48.922;12.198;2023-04-29T11:05:34;20.30;57.60
484;DHT22;228;48.922;12.198;2023-04-29T11:08:20;19.30;59.10
484;DHT22;228;48.922;12.198;2023-04-29T11:10:52;18.50;59.50
484;DHT22;228;48.922;12.198;2023-04-29T11:13:26;19.10;60.50
484;DHT22;228;48.922;12.198;2023-04-29T11:16:07;19.40;60.00
484;DHT22;228;48.922;12.198;2023-04-29T11:19:05;19.80;55.60
484;DHT22;228;48.922;12.198;2023-04-29T11:21:35;19.30;55.00
484;DHT22;228;48.922;12.198;2023-04-29T11:24:03;20.00;55.30
484;DHT22;228;48.922;12.198;2023-04-29T11:26:33;21.70;52.60
484;DHT22;228;48.922;12.198;2023-04-29T11:28:59;22.20;50.90
484;DHT22;228;48.922;12.198;2023-04-29T11:31:29;21.70;51.30
484;DHT22;228;48.922;12.198;2023-04-29T11:33:59;20.50;53.80
484;DHT22;228;48.922;12.198;2023-04-29T11:36:25;20.60;55.20
484;DHT22;228;48.922;12.198;2023-04-29T11:38:52;21.40;52.10
484;DHT22;228;48.922;12.198;2023-04-29T11:41:19;22.70;48.70
484;DHT22;228;48.922;12.198;2023-04-29T11:43:46;24.10;46.90
484;DHT22;228;48.922;12.198;2023-04-29T11:46:13;23.70;45.80
484;DHT22;228;48.922;12.198;2023-04-29T11:48:48;22.70;48.40
484;DHT22;228;48.922;12.198;2023-04-29T11:51:16;22.40;51.30
484;DHT22;228;48.922;12.198;2023-04-29T11:53:43;22.50;48.60
484;DHT22;228;48.922;12.198;2023-04-29T11:56:10;22.20;50.80
484;DHT22;228;48.922;12.198;2023-04-29T11:58:37;22.20;51.30
484;DHT22;228;48.922;12.198;2023-04-29T12:01:04;22.30;51.10
484;DHT22;228;48.922;12.198;2023-04-29T12:03:32;20.70;54.50
484;DHT22;228;48.922;12.198;2023-04-29T12:05:58;20.00;55.80
484;DHT22;228;48.922;12.198;2023-04-29T12:08:28;19.00;58.80
484;DHT22;228;48.922;12.198;2023-04-29T12:10:56;18.60;58.40
484;DHT22;228;48.922;12.198;2023-04-29T12:13:26;18.80;58.40
484;DHT22;228;48.922;12.198;2023-04-29T12:15:53;20.00;56.70
484;DHT22;228;48.922;12.198;2023-04-29T12:18:20;22.80;50.80
484;DHT22;228;48.922;12.198;2023-04-29T12:20:49;23.30;47.00
484;DHT22;228;48.922;12.198;2023-04-29T12:23:21;22.50;49.50
484;DHT22;228;48.922;12.198;2023-04-29T12:25:53;22.80;50.20
484;DHT22;228;48.922;12.198;2023-04-29T12:28:21;22.90;48.20
484;DHT22;228;48.922;12.198;2023-04-29T12:30:48;21.90;50.50
484;DHT22;228;48.922;12.198;2023-04-29T12:33:19;21.50;50.70
484;DHT22;228;48.922;12.198;2023-04-29T12:35:50;20.90;53.10
484;DHT22;228;48.922;12.198;2023-04-29T12:38:24;21.10;52.60
484;DHT22;228;48.922;12.198;2023-04-29T12:40:55;21.90;50.00
484;DHT22;228;48.922;12.198;2023-04-29T12:43:30;22.50;49.60
484;DHT22;228;48.922;12.198;2023-04-29T12:46:03;22.20;47.90
484;DHT22;228;48.922;12.198;2023-04-29T12:48:31;21.70;46.90
484;DHT22;228;48.922;12.198;2023-04-29T12:51:00;20.80;48.50
484;DHT22;228;48.922;12.198;2023-04-29T12:53:28;20.60;50.50
484;DHT22;228;48.922;12.198;2023-04-29T12:55:54;21.30;49.70
484;DHT22;228;48.922;12.198;2023-04-29T12:58:20;21.90;49.60
484;DHT22;228;48.922;12.198;2023-04-29T13:00:47;21.60;51.00
484;DHT22;228;48.922;12.198;2023-04-29T13:03:13;21.90;49.30
484;DHT22;228;48.922;12.198;2023-04-29T13:05:39;21.80;47.10
484;DHT22;228;48.922;12.198;2023-04-29T13:08:06;22.10;47.70
484;DHT22;228;48.922;12.198;2023-04-29T13:10:34;22.70;46.40
484;DHT22;228;48.922;12.198;2023-04-29T13:13:00;22.40;46.50
484;DHT22;228;48.922;12.198;2023-04-29T13:15:26;22.00;46.70
484;DHT22;228;48.922;12.198;2023-04-29T13:17:52;22.00;47.00
484;DHT22;228;48.922;12.198;2023-04-29T13:20:18;23.70;46.30
484;DHT22;228;48.922;12.198;2023-04-29T13:22:45;24.20;44.30
484;DHT22;228;48.922;12.198;2023-04-29T13:25:11;24.00;43.70
484;DHT22;228;48.922;12.198;2023-04-29T13:27:37;23.20;44.60
484;DHT22;228;48.922;12.198;2023-04-29T13:30:08;23.30;45.30
484;DHT22;228;48.922;12.198;2023-04-29T13:32:35;21.50;47.00
484;DHT22;228;48.922;12.198;2023-04-29T13:35:01;20.50;49.90
484;DHT22;228;48.922;12.198;2023-04-29T13:37:28;20.10;51.50
484;DHT22;228;48.922;12.198;2023-04-29T13:39:54;19.90;52.90
484;DHT22;228;48.922;12.198;2023-04-29T13:42:20;20.60;51.00
484;DHT22;228;48.922;12.198;2023-04-29T13:44:46;21.50;48.50
484;DHT22;228;48.922;12.198;2023-04-29T13:47:13;22.90;45.70
484;DHT22;228;48.922;12.198;2023-04-29T13:49:39;23.50;44.10
484;DHT22;228;48.922;12.198;2023-04-29T13:52:06;23.60;45.40
484;DHT22;228;48.922;12.198;2023-04-29T13:54:33;24.10;42.50
484;DHT22;228;48.922;12.198;2023-04-29T13:56:59;23.70;40.00
484;DHT22;228;48.922;12.198;2023-04-29T13:59:31;23.70;40.10
484;DHT22;228;48.922;12.198;2023-04-29T14:01:58;24.20;40.60
484;DHT22;228;48.922;12.198;2023-04-29T14:04:25;24.70;41.00
484;DHT22;228;48.922;12.198;2023-04-29T14:06:52;25.20;38.00
484;DHT22;228;48.922;12.198;2023-04-29T14:09:21;25.90;36.90
484;DHT22;228;48.922;12.198;2023-04-29T14:11:52;26.20;37.30
484;DHT22;228;48.922;12.198;2023-04-29T14:14:18;26.40;35.10
484;DHT22;228;48.922;12.198;2023-04-29T14:16:46;25.90;37.60
484;DHT22;228;48.922;12.198;2023-04-29T14:19:16;25.90;36.40
484;DHT22;228;48.922;12.198;2023-04-29T14:21:42;25.80;37.50
484;DHT22;228;48.922;12.198;2023-04-29T14:24:07;25.10;37.10
484;DHT22;228;48.922;12.198;2023-04-29T14:26:34;25.30;37.70
484;DHT22;228;48.922;12.198;2023-04-29T14:29:01;24.80;38.30
484;DHT22;228;48.922;12.198;2023-04-29T14:31:29;23.80;39.10
484;DHT22;228;48.922;12.198;2023-04-29T14:33:59;24.60;39.60
484;DHT22;228;48.922;12.198;2023-04-29T14:36:26;25.30;38.20
484;DHT22;228;48.922;12.198;2023-04-29T14:38:53;26.40;36.10
484;DHT22;228;48.922;12.198;2023-04-29T14:41:19;26.80;36.30
484;DHT22;228;48.922;12.198;2023-04-29T14:43:48;26.60;35.20
484;DHT22;228;48.922;12.198;2023-04-29T14:46:14;25.50;39.60
484;DHT22;228;48.922;12.198;2023-04-29T14:48:41;25.60;38.50
484;DHT22;228;48.922;12.198;2023-04-29T14:51:07;25.10;38.80
484;DHT22;228;48.922;12.198;2023-04-29T14:53:33;24.30;37.80
484;DHT22;228;48.922;12.198;2023-04-29T14:55:59;24.00;38.70
484;DHT22;228;48.922;12.198;2023-04-29T14:58:26;23.30;40.50
484;DHT22;228;48.922;12.198;2023-04-29T15:00:52;23.40;40.00
484;DHT22;228;48.922;12.198;2023-04-29T15:03:19;23.50;40.20
484;DHT22;228;48.922;12.198;2023-04-29T15:05:46;23.70;39.00
484;DHT22;228;48.922;12.198;2023-04-29T15:08:14;23.30;40.20
484;DHT22;228;48.922;12.198;2023-04-29T15:10:41;23.80;39.70
484;DHT22;228;48.922;12.198;2023-04-29T15:13:08;23.60;38.50
484;DHT22;228;48.922;12.198;2023-04-29T15:15:34;23.20;39.70
484;DHT22;228;48.922;12.198;2023-04-29T15:18:00;23.30;39.50
484;DHT22;228;48.922;12.198;2023-04-29T15:20:26;23.80;40.70
484;DHT22;228;48.922;12.198;2023-04-29T15:22:52;24.60;39.80
484;DHT22;228;48.922;12.198;2023-04-29T15:25:19;24.40;38.90
484;DHT22;228;48.922;12.198;2023-04-29T15:27:45;24.20;37.80
484;DHT22;228;48.922;12.198;2023-04-29T15:30:11;24.30;38.70
484;DHT22;228;48.922;12.198;2023-04-29T15:32:38;22.70;41.50
484;DHT22;228;48.922;12.198;2023-04-29T15:35:04;21.80;44.50
484;DHT22;228;48.922;12.198;2023-04-29T15:37:31;20.60;45.60
484;DHT22;228;48.922;12.198;2023-04-29T15:40:01;20.20;48.70
484;DHT22;228;48.922;12.198;2023-04-29T15:42:27;19.80;49.90
484;DHT22;228;48.922;12.198;2023-04-29T15:44:53;19.80;48.50
484;DHT22;228;48.922;12.198;2023-04-29T15:47:19;19.40;48.90
484;DHT22;228;48.922;12.198;2023-04-29T15:49:46;19.20;47.50
484;DHT22;228;48.922;12.198;2023-04-29T15:52:12;18.70;50.50
484;DHT22;228;48.922;12.198;2023-04-29T15:54:38;18.60;51.80
484;DHT22;228;48.922;12.198;2023-04-29T15:57:05;18.90;52.30
484;DHT22;228;48.922;12.198;2023-04-29T15:59:31;19.30;53.00
484;DHT22;228;48.922;12.198;2023-04-29T16:01:57;19.60;52.50
484;DHT22;228;48.922;12.198;2023-04-29T16:04:23;20.10;49.90
484;DHT22;228;48.922;12.198;2023-04-29T16:06:51;20.00;48.80
484;DHT22;228;48.922;12.198;2023-04-29T16:09:18;19.50;48.20
484;DHT22;228;48.922;12.198;2023-04-29T16:11:44;18.90;49.30
484;DHT22;228;48.922;12.198;2023-04-29T16:14:10;18.70;50.70
484;DHT22;228;48.922;12.198;2023-04-29T16:16:37;18.90;50.50
484;DHT22;228;48.922;12.198;2023-04-29T16:19:03;18.70;50.70
484;DHT22;228;48.922;12.198;2023-04-29T16:21:29;18.40;52.40
484;DHT22;228;48.922;12.198;2023-04-29T16:23:55;18.40;52.30
484;DHT22;228;48.922;12.198;2023-04-29T16:26:22;18.60;52.60
484;DHT22;228;48.922;12.198;2023-04-29T16:28:48;18.20;51.80
484;DHT22;228;48.922;12.198;2023-04-29T16:31:14;18.10;53.40
484;DHT22;228;48.922;12.198;2023-04-29T16:33:40;17.90;53.30
484;DHT22;228;48.922;12.198;2023-04-29T16:36:06;17.90;53.30
484;DHT22;228;48.922;12.198;2023-04-29T16:38:32;17.90;53.60
484;DHT22;228;48.922;12.198;2023-04-29T16:40:58;18.10;53.90
484;DHT22;228;48.922;12.198;2023-04-29T16:43:24;17.90;54.00
484;DHT22;228;48.922;12.198;2023-04-29T16:45:50;18.00;53.20
484;DHT22;228;48.922;12.198;2023-04-29T16:48:16;17.70;53.80
484;DHT22;228;48.922;12.198;2023-04-29T16:50:43;17.60;55.00
484;DHT22;228;48.922;12.198;2023-04-29T16:53:09;17.40;54.40
484;DHT22;228;48.922;12.198;2023-04-29T16:55:35;17.10;55.00
484;DHT22;228;48.922;12.198;2023-04-29T16:58:01;17.10;56.10
484;DHT22;228;48.922;12.198;2023-04-29T17:00:28;17.30;55.40
484;DHT22;228;48.922;12.198;2023-04-29T17:02:54;17.40;55.00
484;DHT22;228;48.922;12.198;2023-04-29T17:05:23;17.20;54.70
484;DHT22;228;48.922;12.198;2023-04-29T17:07:53;17.40;55.80
484;DHT22;228;48.922;12.198;2023-04-29T17:10:20;17.30;55.30
484;DHT22;228;48.922;12.198;2023-04-29T17:12:46;17.30;55.20
484;DHT22;228;48.922;12.198;2023-04-29T17:15:12;17.30;54.70
484;DHT22;228;48.922;12.198;2023-04-29T17:17:38;17.30;55.80
484;DHT22;228;48.922;12.198;2023-04-29T17:20:04;17.40;55.60
484;DHT22;228;48.922;12.198;2023-04-29T17:22:31;17.30;56.70
484;DHT22;228;48.922;12.198;2023-04-29T17:24:58;17.20;55.70
484;DHT22;228;48.922;12.198;2023-04-29T17:27:24;16.90;56.90
484;DHT22;228;48.922;12.198;2023-04-29T17:29:51;17.10;58.10
484;DHT22;228;48.922;12.198;2023-04-29T17:32:17;17.10;57.60
484;DHT22;228;48.922;12.198;2023-04-29T17:34:49;17.10;58.00
484;DHT22;228;48.922;12.198;2023-04-29T17:37:16;17.20;57.40
484;DHT22;228;48.922;12.198;2023-04-29T17:39:52;17.10;57.40
484;DHT22;228;48.922;12.198;2023-04-29T17:42:19;17.10;57.30
484;DHT22;228;48.922;12.198;2023-04-29T17:44:48;16.90;58.00
484;DHT22;228;48.922;12.198;2023-04-29T17:47:15;16.80;58.50
484;DHT22;228;48.922;12.198;2023-04-29T17:49:42;17.00;58.70
484;DHT22;228;48.922;12.198;2023-04-29T17:52:09;16.80;58.60
484;DHT22;228;48.922;12.198;2023-04-29T17:54:38;16.50;58.10
484;DHT22;228;48.922;12.198;2023-04-29T17:57:04;16.20;60.40
484;DHT22;228;48.922;12.198;2023-04-29T17:59:31;16.20;60.60
484;DHT22;228;48.922;12.198;2023-04-29T18:01:57;16.40;60.40
484;DHT22;228;48.922;12.198;2023-04-29T18:04:23;16.30;60.30
484;DHT22;228;48.922;12.198;2023-04-29T18:06:50;16.10;60.80
484;DHT22;228;48.922;12.198;2023-04-29T18:09:16;16.00;61.20
484;DHT22;228;48.922;12.198;2023-04-29T18:11:45;15.90;61.80
484;DHT22;228;48.922;12.198;2023-04-29T18:14:11;15.90;62.30
484;DHT22;228;48.922;12.198;2023-04-29T18:16:37;15.70;62.50
484;DHT22;228;48.922;12.198;2023-04-29T18:19:03;15.60;63.40
484;DHT22;228;48.922;12.198;2023-04-29T18:21:29;15.90;63.10
484;DHT22;228;48.922;12.198;2023-04-29T18:23:56;15.60;63.10
484;DHT22;228;48.922;12.198;2023-04-29T18:26:23;15.50;64.00
484;DHT22;228;48.922;12.198;2023-04-29T18:28:49;15.30;64.70
484;DHT22;228;48.922;12.198;2023-04-29T18:31:16;15.00;65.40
484;DHT22;228;48.922;12.198;2023-04-29T18:33:42;14.80;66.40
484;DHT22;228;48.922;12.198;2023-04-29T18:36:09;14.80;66.40
484;DHT22;228;48.922;12.198;2023-04-29T18:38:35;15.20;65.90
484;DHT22;228;48.922;12.198;2023-04-29T18:41:02;15.50;64.20
484;DHT22;228;48.922;12.198;2023-04-29T18:43:29;15.60;63.60
484;DHT22;228;48.922;12.198;2023-04-29T18:45:56;15.30;64.00
484;DHT22;228;48.922;12.198;2023-04-29T18:48:23;15.30;64.30
484;DHT22;228;48.922;12.198;2023-04-29T18:50:53;15.20;65.10
484;DHT22;228;48.922;12.198;2023-04-29T18:53:20;15.10;65.30
484;DHT22;228;48.922;12.198;2023-04-29T18:55:46;15.20;65.50
484;DHT22;228;48.922;12.198;2023-04-29T18:58:12;15.00;65.60
484;DHT22;228;48.922;12.198;2023-04-29T19:00:38;15.00;66.10
484;DHT22;228;48.922;12.198;2023-04-29T19:03:05;14.90;65.80
484;DHT22;228;48.922;12.198;2023-04-29T19:05:31;14.70;66.80
484;DHT22;228;48.922;12.198;2023-04-29T19:07:57;14.50;67.60
484;DHT22;228;48.922;12.198;2023-04-29T19:10:23;14.50;68.20
484;DHT22;228;48.922;12.198;2023-04-29T19:12:50;14.40;68.00
484;DHT22;228;48.922;12.198;2023-04-29T19:15:16;14.50;68.40
484;DHT22;228;48.922;12.198;2023-04-29T19:17:43;14.40;68.30
484;DHT22;228;48.922;12.198;2023-04-29T19:20:09;14.30;68.50
484;DHT22;228;48.922;12.198;2023-04-29T19:22:36;14.30;69.00
484;DHT22;228;48.922;12.198;2023-04-29T19:25:02;14.10;69.30
484;DHT22;228;48.922;12.198;2023-04-29T19:27:29;14.00;70.10
484;DHT22;228;48.922;12.198;2023-04-29T19:29:55;14.10;70.50
484;DHT22;228;48.922;12.198;2023-04-29T19:32:21;14.00;69.80
484;DHT22;228;48.922;12.198;2023-04-29T19:34:47;14.20;70.10
484;DHT22;228;48.922;12.198;2023-04-29T19:37:14;14.40;69.30
484;DHT22;228;48.922;12.198;2023-04-29T19:39:40;14.70;68.40
484;DHT22;228;48.922;12.198;2023-04-29T19:42:07;14.80;67.10
484;DHT22;228;48.922;12.198;2023-04-29T19:44:33;15.10;66.20
484;DHT22;228;48.922;12.198;2023-04-29T19:47:03;15.30;65.20
484;DHT22;228;48.922;12.198;2023-04-29T19:49:29;15.30;64.90
484;DHT22;228;48.922;12.198;2023-04-29T19:51:56;15.50;64.60
484;DHT22;228;48.922;12.198;2023-04-29T19:54:25;15.50;64.30
484;DHT22;228;48.922;12.198;2023-04-29T19:56:53;15.60;64.10
484;DHT22;228;48.922;12.198;2023-04-29T19:59:20;15.50;64.00
484;DHT22;228;48.922;12.198;2023-04-29T20:01:49;15.20;64.20
484;DHT22;228;48.922;12.198;2023-04-29T20:04:19;15.00;64.90
484;DHT22;228;48.922;12.198;2023-04-29T20:06:45;15.30;65.00
484;DHT22;228;48.922;12.198;2023-04-29T20:09:11;15.20;65.00
484;DHT22;228;48.922;12.198;2023-04-29T20:11:39;15.10;65.30
484;DHT22;228;48.922;12.198;2023-04-29T20:14:05;15.00;65.10
484;DHT22;228;48.922;12.198;2023-04-29T20:16:31;15.10;65.10
484;DHT22;228;48.922;12.198;2023-04-29T20:19:01;15.10;65.00
484;DHT22;228;48.922;12.198;2023-04-29T20:21:27;15.00;65.30
484;DHT22;228;48.922;12.198;2023-04-29T20:23:57;15.00;65.10
484;DHT22;228;48.922;12.198;2023-04-29T20:26:23;14.90;64.70
484;DHT22;228;48.922;12.198;2023-04-29T20:28:49;14.90;64.60
484;DHT22;228;48.922;12.198;2023-04-29T20:31:15;14.90;65.10
484;DHT22;228;48.922;12.198;2023-04-29T20:33:41;15.00;64.80
484;DHT22;228;48.922;12.198;2023-04-29T20:36:07;14.70;65.00
484;DHT22;228;48.922;12.198;2023-04-29T20:38:33;14.50;66.30